Granbury, Texas
Current Conditions -  °F | °C
As of 2:15 AM on Tuesday 27 Jan 2015 (Local Time) from KGDJ Reporting Station
Clear Clear  
Wind Chill: 43°   Ceiling: Unl
Heat Index: 43°   Visibility: 10mi
Dew Point: 37°   Wind: 0mph
Humidity: 80%   Direction: NA
Pressure: 30.13"   Gusts: NA
Location:  32.44°N, 97.79°W
Report Text: KGDJ 270815Z AUTO 00000KT 10SM CLR 06/03 A3013 RMK AO2 T00630030
Loading
Personal Weather Stations






























Interactive Weather Map New forecast layout! Learn more

10-Day Weather Forecast

Advertisements
Track Severe Weather on mobile